Aeroporto :
LOGIN :

Iscrizione | Disclaimer

   EN    FR    IT 

 










Sommario :    VFR   VFR Marginale   IFR   IFR Intensivo   IFR Molto Intensivo
Visibilità : 
Base nubi : 
>= 8 km
>= 3000ft
5 / 8 km
1000 / 3000 ft
1500m / 5 km
500 / 1000 ft
800 / 1500m
200 / 500 ft
< 800m
< 200 ft
Simboli :   Temporali  Nebbia  Neve Forte  Precipitazioni Forti  Vento > 20 kt
SIGMETs :   Varie  Temporali  Ghiacco  Turbolenza  Onda orograficha  Ceneri Vulcaniche






- Altitudine del aeroporto : 1 ft


EGCK - Caernarfon

ULTIMO METAR :
  • 071820Z AUTO 20020G31KT 9999 OVC006/// 10/09 Q1004

METARs OBSOLETI :
  • 071750Z AUTO 20021G35KT 9999 OVC006/// 10/08 Q1005
  • 071720Z AUTO 20020G31KT 9999 OVC006/// 10/08 Q1005
  • 071650Z 21018G29KT 9000 OVC009 10/08 Q1006
  • 071620Z 20016G26KT 9000 OVC011 10/08 Q1007
  • 071550Z 20016G26KT 9000 OVC009 10/09 Q1007

TAF TAF EGCK
Valido dal 07 a 18 ore il 08 a 03 ore UTC


071703Z 0718/0803 21014KT 9999 SCT020
TEMPO 0718/0803 20017G27KT BKN010
PROB40
TEMPO 0718/0724 20028G38KT 4000 BR BKN007
PROB30
TEMPO 0721/0724 +RA BKN004



MetMap, La meteo Aeronautica in un colpo d'occhio ! - Copyright ORBIFLY Dicembre 2007 - Disclaimer

ORBIFLY MET'MAP TEAM :

Programmazione e sviluppo : Alexandra Zaïnal
Concezione : Baudouin d'Aumeries
Aiuto per la programmazione : Marc-Olivier Méhu
Supporto tecnico e logistico : Manuel Goepfert
Aiuto per la traduzione : Arnaldo La Scala

Contatto : metmap@orbifly.com




FONTI E CREDITI :

   NOAA